Time;durP1;ratioP1;P1;durP2;ratioP2;P2;SDS_P1;SDS_P2;PMS_P1;PMS_P2;Temp;Humidity;BMP_temperature;BMP_pressure;BME280_temperature;BME280_humidity;BME280_pressure;Samples;Min_cycle;Max_cycle;Signal;HPM_P1;HPM_P2
2022/05/19 00:01:54;;;;;;;10.32;4.15;;;;;;;;;;4303768;80;28565;-79
2022/05/19 00:07:55;;;;;;;9.13;4.05;;;;;;;;;;4384316;79;28932;-78
2022/05/19 00:13:56;;;;;;;9.95;4.28;;;;;;;;;;4389965;79;28569;-77
2022/05/19 00:20:05;;;;;;;8.85;3.67;;;;;;;;;;4404882;79;28521;-79
2022/05/19 00:26:06;;;;;;;9.05;3.65;;;;;;;;;;4311461;80;28549;-78
2022/05/19 00:32:08;;;;;;;11.60;3.30;;;;;;;;;;4300199;80;28479;-77
2022/05/19 00:38:08;;;;;;;10.20;3.65;;;;;;;;;;4319996;80;28555;-78
2022/05/19 00:44:15;;;;;;;8.13;3.67;;;;;;;;;;4346056;80;28526;-79
2022/05/19 00:50:18;;;;;;;8.70;3.58;;;;;;;;;;4386039;79;28493;-78
2022/05/19 00:56:24;;;;;;;9.45;3.55;;;;;;;;;;4393398;79;28449;-78
2022/05/19 01:02:30;;;;;;;10.90;3.80;;;;;;;;;;4404733;79;28536;-77
2022/05/19 01:08:32;;;;;;;5.43;3.20;;;;;;;;;;4407615;79;28496;-77
2022/05/19 01:14:33;;;;;;;7.85;3.52;;;;;;;;;;4406642;79;28490;-77
2022/05/19 01:20:34;;;;;;;9.50;3.45;;;;;;;;;;4415083;79;28496;-77
2022/05/19 01:26:46;;;;;;;7.22;3.58;;;;;;;;;;4404582;79;28513;-77
2022/05/19 01:32:47;;;;;;;8.58;3.70;;;;;;;;;;4403589;79;28524;-77
2022/05/19 01:38:50;;;;;;;9.68;3.58;;;;;;;;;;4412228;79;28592;-77
2022/05/19 01:45:00;;;;;;;6.25;3.30;;;;;;;;;;4396154;79;28552;-77
2022/05/19 01:51:12;;;;;;;9.80;4.10;;;;;;;;;;4409770;79;28540;-78
2022/05/19 01:57:18;;;;;;;11.30;3.33;;;;;;;;;;4400675;79;28547;-80
2022/05/19 02:03:21;;;;;;;8.35;4.17;;;;;;;;;;4434907;79;28501;-80
2022/05/19 02:09:25;;;;;;;9.20;4.00;;;;;;;;;;4395985;79;28965;-79
2022/05/19 02:15:27;;;;;;;11.33;4.00;;;;;;;;;;4406383;79;28525;-79
2022/05/19 02:21:29;;;;;;;9.33;4.30;;;;;;;;;;4419671;79;28508;-79
2022/05/19 02:27:43;;;;;;;9.05;4.55;;;;;;;;;;4424214;79;28548;-79
2022/05/19 02:33:44;;;;;;;10.28;4.10;;;;;;;;;;4362158;80;28522;-79
2022/05/19 02:39:45;;;;;;;8.28;3.65;;;;;;;;;;4328906;80;28536;-78
2022/05/19 02:45:46;;;;;;;7.62;4.08;;;;;;;;;;4337437;80;28489;-78
2022/05/19 02:51:48;;;;;;;10.85;4.22;;;;;;;;;;4333836;80;28510;-79
2022/05/19 02:57:49;;;;;;;9.33;4.12;;;;;;;;;;4387729;79;28548;-78
2022/05/19 03:03:56;;;;;;;8.23;4.40;;;;;;;;;;4382134;79;28531;-79
2022/05/19 03:09:57;;;;;;;8.78;4.15;;;;;;;;;;4407881;79;28493;-79
2022/05/19 03:15:58;;;;;;;11.25;4.62;;;;;;;;;;4390347;79;28496;-77
2022/05/19 03:22:04;;;;;;;8.85;4.45;;;;;;;;;;4375195;80;28455;-78
2022/05/19 03:28:05;;;;;;;11.38;4.35;;;;;;;;;;4330143;80;28512;-79
2022/05/19 03:34:06;;;;;;;8.55;4.10;;;;;;;;;;4346388;80;28502;-78
2022/05/19 03:40:07;;;;;;;8.23;3.87;;;;;;;;;;4328694;79;28566;-79
2022/05/19 03:46:13;;;;;;;8.03;3.83;;;;;;;;;;4236898;82;28486;-79
2022/05/19 03:52:14;;;;;;;13.35;4.30;;;;;;;;;;4250518;82;28584;-79
2022/05/19 03:58:22;;;;;;;8.85;4.47;;;;;;;;;;4344295;81;28529;-78
2022/05/19 04:04:22;;;;;;;;;;;;;;;;;;4347249;80;28555;-76
2022/05/19 04:10:29;;;;;;;8.83;4.17;;;;;;;;;;4315386;80;20164;-79
2022/05/19 04:16:30;;;;;;;10.30;4.58;;;;;;;;;;4284566;82;28517;-77
2022/05/19 04:22:31;;;;;;;10.25;4.60;;;;;;;;;;4284667;81;28569;-75
2022/05/19 04:28:32;;;;;;;10.63;4.65;;;;;;;;;;4314286;80;28535;-75
2022/05/19 04:34:33;;;;;;;10.28;4.37;;;;;;;;;;4325928;80;28472;-74
2022/05/19 04:40:38;;;;;;;11.38;4.72;;;;;;;;;;4333796;80;28502;-74
2022/05/19 04:46:39;;;;;;;13.88;4.62;;;;;;;;;;4343970;80;28504;-74
2022/05/19 04:52:40;;;;;;;13.65;4.25;;;;;;;;;;4318955;80;28541;-77
2022/05/19 04:58:41;;;;;;;11.30;4.20;;;;;;;;;;4324085;80;28555;-80
2022/05/19 05:04:42;;;;;;;11.18;3.85;;;;;;;;;;4336772;80;28568;-82
2022/05/19 05:10:45;;;;;;;10.32;3.80;;;;;;;;;;4302022;80;28500;-76
2022/05/19 05:16:51;;;;;;;8.65;3.77;;;;;;;;;;4331297;80;28520;-73
2022/05/19 05:22:52;;;;;;;10.85;4.00;;;;;;;;;;4358015;79;28506;-75
2022/05/19 05:28:57;;;;;;;9.00;3.85;;;;;;;;;;4316895;80;28605;-75
2022/05/19 05:35:00;;;;;;;8.03;3.72;;;;;;;;;;4373286;79;28563;-80
2022/05/19 05:41:03;;;;;;;8.83;3.50;;;;;;;;;;4308291;81;28508;-81
2022/05/19 05:47:09;;;;;;;7.45;3.40;;;;;;;;;;4319691;81;28546;-77
2022/05/19 05:53:10;;;;;;;6.95;2.95;;;;;;;;;;4303102;81;28536;-80
2022/05/19 05:59:10;;;;;;;7.33;2.60;;;;;;;;;;4282169;81;28508;-80
2022/05/19 06:05:12;;;;;;;5.78;2.62;;;;;;;;;;4223132;82;28474;-81
2022/05/19 06:11:13;;;;;;;7.15;3.00;;;;;;;;;;4261704;82;28483;-81
2022/05/19 06:17:14;;;;;;;4.65;2.20;;;;;;;;;;4396980;80;28486;-82
2022/05/19 06:23:18;;;;;;;6.42;2.77;;;;;;;;;;4331493;81;28588;-81
2022/05/19 06:29:26;;;;;;;6.33;2.35;;;;;;;;;;4311141;81;28454;-82
2022/05/19 06:35:28;;;;;;;6.95;2.50;;;;;;;;;;4309795;81;28553;-81
2022/05/19 06:47:49;;;;;;;7.53;3.30;;;;;;;;;;4349560;80;28499;-79
2022/05/19 06:53:51;;;;;;;7.25;3.15;;;;;;;;;;4418827;79;28555;-74
2022/05/19 06:59:58;;;;;;;8.25;3.30;;;;;;;;;;4432628;79;28481;-74
2022/05/19 07:05:59;;;;;;;7.47;2.58;;;;;;;;;;4306683;80;28509;-75
2022/05/19 07:12:05;;;;;;;6.35;2.05;;;;;;;;;;4421591;79;28505;-74
2022/05/19 07:18:08;;;;;;;4.67;2.00;;;;;;;;;;4415552;79;28543;-74
2022/05/19 07:24:16;;;;;;;4.35;2.12;;;;;;;;;;4344092;80;28537;-74
2022/05/19 07:30:17;;;;;;;5.22;2.35;;;;;;;;;;4332861;80;28590;-74
2022/05/19 07:42:34;;;;;;;3.33;1.52;;;;;;;;;;4512038;77;28553;-74
2022/05/19 07:48:35;;;;;;;5.05;2.10;;;;;;;;;;4495057;77;28509;-74
2022/05/19 07:54:37;;;;;;;4.10;2.00;;;;;;;;;;4474955;77;28542;-74
2022/05/19 08:00:45;;;;;;;3.92;1.77;;;;;;;;;;4436089;77;28517;-75
2022/05/19 08:06:52;;;;;;;6.83;1.90;;;;;;;;;;4479824;77;28489;-74
2022/05/19 08:20:01;;;;;;;3.90;1.90;;;;;;;;;;4463856;77;28542;-75
2022/05/19 08:26:02;;;;;;;6.25;1.70;;;;;;;;;;4496478;77;28482;-75
2022/05/19 08:32:04;;;;;;;3.33;1.50;;;;;;;;;;4471531;77;28524;-73
2022/05/19 08:38:06;;;;;;;4.40;1.37;;;;;;;;;;4441746;77;28575;-73
2022/05/19 08:44:24;;;;;;;5.00;1.37;;;;;;;;;;4387013;79;28533;-74
2022/05/19 08:50:32;;;;;;;4.45;1.32;;;;;;;;;;4332442;80;28519;-74
2022/05/19 08:56:41;;;;;;;2.80;1.40;;;;;;;;;;4378785;79;28600;-74
2022/05/19 09:09:52;;;;;;;4.33;1.27;;;;;;;;;;4355604;79;28548;-73
2022/05/19 09:15:54;;;;;;;3.90;1.30;;;;;;;;;;4310062;79;35264;-73
2022/05/19 09:22:09;;;;;;;2.35;1.45;;;;;;;;;;4342557;79;37606;-74
2022/05/19 09:28:12;;;;;;;2.30;1.40;;;;;;;;;;4368133;79;28575;-74
2022/05/19 09:34:13;;;;;;;2.58;1.10;;;;;;;;;;4380109;79;28972;-74
2022/05/19 09:40:17;;;;;;;4.37;1.30;;;;;;;;;;4367963;80;28546;-74
2022/05/19 09:46:18;;;;;;;3.47;1.20;;;;;;;;;;4364108;79;28573;-74
2022/05/19 09:52:23;;;;;;;4.15;1.40;;;;;;;;;;4374998;80;28498;-74
2022/05/19 09:58:30;;;;;;;3.27;1.50;;;;;;;;;;4370356;80;28579;-74
2022/05/19 10:04:39;;;;;;;3.00;1.30;;;;;;;;;;4335002;79;28511;-73
2022/05/19 10:10:55;;;;;;;2.83;1.40;;;;;;;;;;4371702;79;28511;-74
2022/05/19 10:17:13;;;;;;;4.12;1.20;;;;;;;;;;4356856;80;28532;-73
2022/05/19 10:23:28;;;;;;;4.12;1.47;;;;;;;;;;4368105;79;28542;-73
2022/05/19 10:50:10;;;;;;;3.83;1.30;;;;;;;;;;4439749;78;28489;-74
2022/05/19 11:02:58;;;;;;;4.28;1.45;;;;;;;;;;4315636;79;28510;-75
2022/05/19 11:09:08;;;;;;;;;;;;;;;;;;4322438;80;28543;-75
2022/05/19 11:15:16;;;;;;;3.93;1.23;;;;;;;;;;4464644;77;20193;-73
2022/05/19 11:21:19;;;;;;;2.35;1.45;;;;;;;;;;4470179;78;28594;-74
2022/05/19 11:27:21;;;;;;;2.70;1.20;;;;;;;;;;4490041;77;28539;-73
2022/05/19 11:33:24;;;;;;;2.55;1.30;;;;;;;;;;4485067;77;28557;-74
2022/05/19 11:39:33;;;;;;;4.10;2.70;;;;;;;;;;4470471;77;28588;-74
2022/05/19 11:45:53;;;;;;;3.37;1.25;;;;;;;;;;4410494;78;28509;-73
2022/05/19 11:58:35;;;;;;;1.92;1.35;;;;;;;;;;4415433;78;28474;-73
2022/05/19 12:04:42;;;;;;;3.67;1.30;;;;;;;;;;4428170;78;28485;-73
2022/05/19 12:10:44;;;;;;;4.85;1.42;;;;;;;;;;4376192;79;28537;-75
2022/05/19 12:16:47;;;;;;;2.35;1.12;;;;;;;;;;4347327;79;28523;-74
2022/05/19 12:22:50;;;;;;;2.58;1.35;;;;;;;;;;4421168;79;28533;-74
2022/05/19 12:29:05;;;;;;;4.05;1.37;;;;;;;;;;4411761;78;28517;-74
2022/05/19 12:35:15;;;;;;;2.50;1.30;;;;;;;;;;4358995;78;28515;-74
2022/05/19 12:41:37;;;;;;;3.17;1.22;;;;;;;;;;4406845;78;28505;-74
2022/05/19 12:47:41;;;;;;;3.33;1.50;;;;;;;;;;4349916;79;28512;-74
2022/05/19 12:53:47;;;;;;;3.70;1.30;;;;;;;;;;4370606;80;28533;-75
2022/05/19 13:00:06;;;;;;;2.75;1.30;;;;;;;;;;4445838;78;28541;-75
2022/05/19 13:06:10;;;;;;;4.20;1.20;;;;;;;;;;4448159;78;28564;-73
2022/05/19 13:12:12;;;;;;;2.30;1.30;;;;;;;;;;4355018;80;28577;-74
2022/05/19 13:18:21;;;;;;;3.37;1.30;;;;;;;;;;4451009;78;28552;-74
2022/05/19 13:24:24;;;;;;;3.15;1.32;;;;;;;;;;4417490;78;28496;-74
2022/05/19 13:30:27;;;;;;;3.05;1.40;;;;;;;;;;4431905;78;28472;-74
2022/05/19 13:36:33;;;;;;;2.70;1.17;;;;;;;;;;4422115;78;28527;-76
2022/05/19 13:42:36;;;;;;;3.33;1.40;;;;;;;;;;4443713;78;28502;-74
2022/05/19 13:48:39;;;;;;;2.95;1.15;;;;;;;;;;4471964;77;28555;-74
2022/05/19 13:54:42;;;;;;;4.70;1.45;;;;;;;;;;4500746;77;28587;-74
2022/05/19 14:00:50;;;;;;;2.95;1.40;;;;;;;;;;4495309;77;28483;-73
2022/05/19 14:06:51;;;;;;;2.15;1.25;;;;;;;;;;4515216;77;28572;-73
2022/05/19 14:12:54;;;;;;;9.00;4.03;;;;;;;;;;4502444;77;28537;-74
2022/05/19 14:19:03;;;;;;;3.42;1.60;;;;;;;;;;4513142;77;28502;-73
2022/05/19 14:25:09;;;;;;;3.40;1.42;;;;;;;;;;4503364;77;28530;-73
2022/05/19 14:31:16;;;;;;;5.60;1.80;;;;;;;;;;4517577;77;28530;-73
2022/05/19 14:37:19;;;;;;;5.85;2.50;;;;;;;;;;4508443;77;28481;-74
2022/05/19 14:43:24;;;;;;;5.80;1.40;;;;;;;;;;4526344;77;28478;-74
2022/05/19 14:49:27;;;;;;;4.77;1.47;;;;;;;;;;4502574;77;28547;-74
2022/05/19 14:55:39;;;;;;;4.25;1.55;;;;;;;;;;4493132;78;28566;-74
2022/05/19 15:01:40;;;;;;;3.67;1.35;;;;;;;;;;4495379;78;28566;-74
2022/05/19 15:07:48;;;;;;;5.03;1.55;;;;;;;;;;4488356;77;28503;-74
2022/05/19 15:13:55;;;;;;;3.12;1.40;;;;;;;;;;4444712;79;28593;-74
2022/05/19 15:19:56;;;;;;;4.25;1.30;;;;;;;;;;4318780;80;28469;-74
2022/05/19 15:26:07;;;;;;;2.47;1.12;;;;;;;;;;4468924;78;28538;-74
2022/05/19 15:32:14;;;;;;;2.35;1.35;;;;;;;;;;4480287;78;28540;-74
2022/05/19 15:38:21;;;;;;;3.67;1.35;;;;;;;;;;4461381;78;28511;-74
2022/05/19 15:44:21;;;;;;;;;;;;;;;;;;4471380;78;28517;-73
2022/05/19 15:50:24;;;;;;;4.08;1.62;;;;;;;;;;4473537;77;20304;-74
2022/05/19 15:56:25;;;;;;;5.70;1.40;;;;;;;;;;4494640;77;28568;-74
2022/05/19 16:02:35;;;;;;;3.25;1.50;;;;;;;;;;4509537;77;28538;-73
2022/05/19 16:08:37;;;;;;;3.92;1.42;;;;;;;;;;4502754;77;28520;-74
2022/05/19 16:14:38;;;;;;;3.02;1.60;;;;;;;;;;4488847;77;28545;-73
2022/05/19 16:20:39;;;;;;;2.62;1.40;;;;;;;;;;4509316;77;28490;-72
2022/05/19 16:26:39;;;;;;;2.80;1.47;;;;;;;;;;4503922;77;28600;-73
2022/05/19 16:32:43;;;;;;;2.08;1.30;;;;;;;;;;4507062;77;28539;-78
2022/05/19 16:38:43;;;;;;;4.22;1.30;;;;;;;;;;4512753;77;28467;-81
2022/05/19 16:44:45;;;;;;;4.37;1.32;;;;;;;;;;4506940;77;28519;-84
2022/05/19 16:50:46;;;;;;;5.40;1.30;;;;;;;;;;4513707;77;28554;-85
2022/05/19 17:03:13;;;;;;;2.75;1.32;;;;;;;;;;4505118;77;28507;-85
2022/05/19 17:09:14;;;;;;;4.62;1.50;;;;;;;;;;4506947;77;28504;-81
2022/05/19 17:15:16;;;;;;;5.40;1.57;;;;;;;;;;4505830;77;28473;-78
2022/05/19 17:21:25;;;;;;;9.15;2.05;;;;;;;;;;4512438;77;28504;-75
2022/05/19 17:27:31;;;;;;;5.60;1.65;;;;;;;;;;4506332;77;28451;-80
2022/05/19 17:33:38;;;;;;;5.53;1.67;;;;;;;;;;4505607;77;28470;-84
2022/05/19 17:39:45;;;;;;;3.17;1.60;;;;;;;;;;4503154;77;28453;-81
2022/05/19 17:45:45;;;;;;;;;;;;;;;;;;4510257;77;28497;-81
2022/05/19 17:51:47;;;;;;;6.85;1.60;;;;;;;;;;4502263;79;20301;-78
2022/05/19 17:57:56;;;;;;;6.33;2.10;;;;;;;;;;4524959;77;28554;-78
2022/05/19 18:04:03;;;;;;;4.00;1.70;;;;;;;;;;4538377;78;28508;-78
2022/05/19 18:10:10;;;;;;;6.65;1.90;;;;;;;;;;4517896;79;28487;-76
2022/05/19 18:22:36;;;;;;;11.40;2.33;;;;;;;;;;4493726;77;28505;-80
2022/05/19 18:28:38;;;;;;;9.75;2.55;;;;;;;;;;4511039;77;28469;-80
2022/05/19 18:34:45;;;;;;;13.60;3.37;;;;;;;;;;4497834;77;28479;-81
2022/05/19 18:47:06;;;;;;;8.10;2.72;;;;;;;;;;4498916;77;28521;-79
2022/05/19 18:53:07;;;;;;;6.80;2.55;;;;;;;;;;4506078;77;28511;-78
2022/05/19 18:59:08;;;;;;;9.78;3.33;;;;;;;;;;4498694;77;28522;-79
2022/05/19 19:05:09;;;;;;;5.05;2.55;;;;;;;;;;4489611;77;28514;-79
2022/05/19 19:11:10;;;;;;;8.58;2.85;;;;;;;;;;4494604;77;28506;-80
2022/05/19 19:17:19;;;;;;;7.15;3.20;;;;;;;;;;4508969;77;28532;-80
2022/05/19 19:23:20;;;;;;;5.95;3.02;;;;;;;;;;4512631;77;28547;-82
2022/05/19 19:29:27;;;;;;;8.20;4.60;;;;;;;;;;4507309;77;28511;-84
2022/05/19 19:35:27;;;;;;;7.87;3.90;;;;;;;;;;4502376;77;28551;-78
2022/05/19 19:41:34;;;;;;;10.65;3.10;;;;;;;;;;4501026;77;28556;-78
2022/05/19 19:47:35;;;;;;;;;;;;;;;;;;4518091;77;28479;-80
2022/05/19 19:53:35;;;;;;;10.38;3.27;;;;;;;;;;4510107;77;20210;-78
2022/05/19 19:59:44;;;;;;;7.28;2.95;;;;;;;;;;4506729;77;28493;-81
2022/05/19 20:05:50;;;;;;;7.72;3.47;;;;;;;;;;4480520;77;28482;-80
2022/05/19 20:11:48;;;;;;;7.60;3.65;;;;;;;;;;4500488;78;28523;-78
2022/05/19 20:17:49;;;;;;;14.98;4.45;;;;;;;;;;4497356;77;28546;-76
2022/05/19 20:23:51;;;;;;;11.05;3.67;;;;;;;;;;4507148;77;28514;-77
2022/05/19 20:29:52;;;;;;;9.20;3.87;;;;;;;;;;4520566;77;28475;-77
2022/05/19 20:35:57;;;;;;;8.45;3.70;;;;;;;;;;4497899;77;28497;-78
2022/05/19 20:42:04;;;;;;;10.75;4.67;;;;;;;;;;4505432;77;28494;-77
2022/05/19 20:48:05;;;;;;;6.85;4.00;;;;;;;;;;4512699;77;28556;-74
2022/05/19 20:54:06;;;;;;;11.15;4.60;;;;;;;;;;4503808;77;28451;-79
2022/05/19 21:00:09;;;;;;;8.63;4.60;;;;;;;;;;4511025;77;28516;-78
2022/05/19 21:06:10;;;;;;;9.70;4.30;;;;;;;;;;4509056;77;28553;-78
2022/05/19 21:12:11;;;;;;;9.15;4.25;;;;;;;;;;4505600;78;28557;-77
2022/05/19 21:18:17;;;;;;;9.98;4.05;;;;;;;;;;4503898;77;28568;-79
2022/05/19 21:30:41;;;;;;;9.28;4.53;;;;;;;;;;4510860;78;20280;-79
2022/05/19 21:36:50;;;;;;;9.38;4.15;;;;;;;;;;4488804;78;28518;-78
2022/05/19 21:42:52;;;;;;;8.60;4.40;;;;;;;;;;4475741;77;28517;-78
2022/05/19 21:48:52;;;;;;;9.58;3.98;;;;;;;;;;4470999;77;28538;-78
2022/05/19 21:55:11;;;;;;;8.78;3.55;;;;;;;;;;4519648;78;28512;-78
2022/05/19 22:01:12;;;;;;;6.12;3.60;;;;;;;;;;4503000;77;28499;-78
2022/05/19 22:13:33;;;;;;;6.67;3.15;;;;;;;;;;4483483;77;28505;-80
2022/05/19 22:19:34;;;;;;;6.28;3.42;;;;;;;;;;4511793;77;28520;-80
2022/05/19 22:25:35;;;;;;;9.48;3.42;;;;;;;;;;4507313;77;28566;-80
2022/05/19 22:31:36;;;;;;;8.65;3.25;;;;;;;;;;4518925;77;28560;-77
2022/05/19 22:37:37;;;;;;;3.95;2.72;;;;;;;;;;4503188;77;28512;-78
2022/05/19 22:43:38;;;;;;;6.92;3.00;;;;;;;;;;4509642;77;28571;-78
2022/05/19 22:49:39;;;;;;;7.53;3.10;;;;;;;;;;4471189;77;28505;-78
2022/05/19 22:55:40;;;;;;;7.00;3.20;;;;;;;;;;4436594;78;28521;-78
2022/05/19 23:01:41;;;;;;;8.65;3.45;;;;;;;;;;4437090;78;28568;-77
2022/05/19 23:07:42;;;;;;;6.75;3.58;;;;;;;;;;4443511;79;28521;-78
2022/05/19 23:13:43;;;;;;;8.60;2.92;;;;;;;;;;4428937;78;28499;-77
2022/05/19 23:19:44;;;;;;;5.50;2.65;;;;;;;;;;4434977;78;28541;-77
2022/05/19 23:25:45;;;;;;;5.53;2.90;;;;;;;;;;4441097;79;28518;-77
2022/05/19 23:31:46;;;;;;;5.20;2.90;;;;;;;;;;4438238;78;28508;-78
2022/05/19 23:37:47;;;;;;;5.20;2.77;;;;;;;;;;4438244;78;28555;-78
2022/05/19 23:43:48;;;;;;;6.62;3.17;;;;;;;;;;4439369;78;28477;-80
2022/05/19 23:49:50;;;;;;;6.12;3.00;;;;;;;;;;4448407;77;28564;-79
2022/05/19 23:55:50;;;;;;;5.22;2.80;;;;;;;;;;4511257;77;28595;-77
